Terminal Aerodrome Forecast
Issued by NWS

Home | Current Version | Previous Version | Text Only | Print | Product List | Glossary On
Versions: 1 2 3 4 5 6 7 8 9 10 11 12 13 14 15 16 17 18 19 20 21 22 23 24 25 26 27 28 29 30 31 32 33 34 35 36 37 38 39 40 41 42 43 44 45 46 47 48 49 50
595
FTUS41 KCTP 051618 AAA
TAFAOO
TAF AMD
KAOO 051618Z 0516/0612 05006KT P6SM OVC025
     FM051800 03005KT P6SM BKN035
     FM052000 03005KT P6SM VCSH BKN045
     FM060100 36005KT P6SM VCSH OVC030
     FM060600 36005KT 6SM -RA BR OVC015=

USA.gov is the U.S. government's official web portal to all federal, state and local government web resources and services.